createdAt,value
2023-05-13T00:02:20.996Z,1.87
2023-05-13T00:04:49.415Z,2.37
2023-05-13T00:07:17.735Z,2.40
2023-05-13T00:09:46.025Z,3.07
2023-05-13T00:12:15.681Z,2.63
2023-05-13T00:14:43.990Z,2.50
2023-05-13T00:17:12.248Z,2.17
2023-05-13T00:19:40.800Z,2.33
2023-05-13T00:22:09.204Z,2.17
2023-05-13T00:24:37.479Z,2.20
2023-05-13T00:27:06.069Z,2.20
2023-05-13T00:29:36.084Z,2.77
2023-05-13T00:32:04.520Z,2.20
2023-05-13T00:34:33.024Z,2.27
2023-05-13T00:37:01.683Z,3.10
2023-05-13T00:39:29.933Z,1.57
2023-05-13T00:41:59.247Z,1.73
2023-05-13T00:44:28.987Z,1.70
2023-05-13T00:46:58.641Z,1.87
2023-05-13T00:49:26.963Z,1.70
2023-05-13T00:51:55.792Z,1.80
2023-05-13T00:54:24.060Z,1.87
2023-05-13T00:56:54.498Z,1.60
2023-05-13T00:59:22.769Z,1.90
2023-05-13T01:01:53.220Z,1.77
2023-05-13T01:04:26.324Z,1.73
2023-05-13T01:06:58.784Z,1.80
2023-05-13T01:09:29.479Z,1.40
2023-05-13T01:11:57.785Z,1.87
2023-05-13T01:14:27.746Z,1.13
2023-05-13T01:16:57.514Z,1.00
2023-05-13T01:19:33.178Z,1.50
2023-05-13T01:22:02.851Z,1.33
2023-05-13T01:24:31.267Z,1.00
2023-05-13T01:26:59.587Z,1.20
2023-05-13T01:29:27.884Z,1.43
2023-05-13T01:31:56.199Z,1.60
2023-05-13T01:34:24.527Z,1.47
2023-05-13T01:36:52.818Z,1.20
2023-05-13T01:39:22.448Z,1.43
2023-05-13T01:41:50.754Z,1.00
2023-05-13T01:44:19.030Z,1.47
2023-05-13T01:46:47.565Z,1.23
2023-05-13T01:49:15.958Z,1.27
2023-05-13T01:51:44.295Z,1.10
2023-05-13T01:54:12.575Z,1.20
2023-05-13T01:56:42.249Z,1.47
2023-05-13T01:59:11.092Z,1.23
2023-05-13T02:01:40.575Z,1.03
2023-05-13T02:04:08.988Z,0.90
2023-05-13T02:06:37.300Z,1.10
2023-05-13T02:09:05.696Z,1.20
2023-05-13T02:11:34.006Z,1.20
2023-05-13T02:14:03.701Z,1.50
2023-05-13T02:16:32.594Z,0.90
2023-05-13T02:19:01.023Z,1.10
2023-05-13T02:21:29.361Z,1.17
2023-05-13T02:23:57.630Z,1.10
2023-05-13T02:26:26.254Z,1.30
2023-05-13T02:28:54.560Z,1.50
2023-05-13T02:31:24.219Z,1.50
2023-05-13T02:33:52.507Z,1.20
2023-05-13T02:36:20.844Z,1.27
2023-05-13T02:38:49.136Z,0.93
2023-05-13T02:41:17.470Z,1.23
2023-05-13T02:43:47.016Z,1.30
2023-05-13T02:46:15.346Z,1.40
2023-05-13T02:48:44.992Z,1.50
2023-05-13T02:51:13.261Z,1.80
2023-05-13T02:53:41.525Z,1.20
2023-05-13T02:56:09.876Z,1.37
2023-05-13T02:58:38.146Z,1.00
2023-05-13T03:01:06.576Z,1.10
2023-05-13T03:03:35.022Z,1.00
2023-05-13T03:06:04.747Z,1.30
2023-05-13T03:08:33.035Z,1.17
2023-05-13T03:11:01.379Z,1.27
2023-05-13T03:13:29.656Z,1.23
2023-05-13T03:15:57.996Z,1.40
2023-05-13T03:18:26.435Z,1.40
2023-05-13T03:20:54.725Z,1.23
2023-05-13T03:23:24.359Z,1.13
2023-05-13T03:25:52.731Z,1.50
2023-05-13T03:28:21.265Z,1.57
2023-05-13T03:30:49.572Z,1.27
2023-05-13T03:33:18.109Z,1.30
2023-05-13T03:35:48.520Z,1.13
2023-05-13T03:38:16.832Z,1.27
2023-05-13T03:40:47.044Z,1.40
2023-05-13T03:43:15.349Z,1.33
2023-05-13T03:45:47.636Z,1.17
2023-05-13T03:48:16.458Z,1.20
2023-05-13T03:50:44.750Z,1.50
2023-05-13T03:53:13.124Z,1.20
2023-05-13T03:55:41.387Z,1.33
2023-05-13T03:58:14.215Z,1.33
2023-05-13T04:00:42.962Z,1.50
2023-05-13T04:03:11.392Z,1.33
2023-05-13T04:05:39.731Z,1.37
2023-05-13T04:08:08.011Z,1.37
2023-05-13T04:10:36.283Z,1.17
2023-05-13T04:13:04.649Z,1.00
2023-05-13T04:15:34.328Z,1.00
2023-05-13T04:18:02.763Z,1.30
2023-05-13T04:20:31.149Z,1.20
2023-05-13T04:22:59.442Z,1.27
2023-05-13T04:25:27.698Z,1.50
2023-05-13T04:27:56.029Z,1.23
2023-05-13T04:30:24.294Z,1.40
2023-05-13T04:32:53.995Z,1.10
2023-05-13T04:35:22.398Z,1.30
2023-05-13T04:37:50.673Z,1.13
2023-05-13T04:40:19.078Z,1.30
2023-05-13T04:42:54.467Z,1.30
2023-05-13T04:45:23.725Z,1.50
2023-05-13T04:47:52.054Z,1.20
2023-05-13T04:50:22.014Z,1.30
2023-05-13T04:52:50.759Z,1.67
2023-05-13T04:55:19.088Z,1.60
2023-05-13T04:57:47.363Z,1.30
2023-05-13T05:00:16.289Z,1.13
2023-05-13T05:02:44.635Z,1.47
2023-05-13T05:05:12.907Z,0.97
2023-05-13T05:07:42.502Z,1.10
2023-05-13T05:10:11.206Z,1.60
2023-05-13T05:12:39.530Z,1.30
2023-05-13T05:15:15.413Z,1.40
2023-05-13T05:17:43.906Z,1.50
2023-05-13T05:20:13.461Z,1.30
2023-05-13T05:22:43.153Z,1.40
2023-05-13T05:25:11.708Z,1.53
2023-05-13T05:27:40.185Z,1.40
2023-05-13T05:30:09.090Z,1.47
2023-05-13T05:32:37.411Z,0.83
2023-05-13T05:35:06.030Z,1.70
2023-05-13T05:37:34.347Z,1.40
2023-05-13T05:40:04.654Z,1.33
2023-05-13T05:42:32.902Z,1.33
2023-05-13T05:45:01.230Z,1.07
2023-05-13T05:47:29.609Z,1.53
2023-05-13T05:49:57.915Z,1.37
2023-05-13T05:52:26.210Z,1.03
2023-05-13T05:54:54.458Z,1.83
2023-05-13T05:57:24.110Z,2.17
2023-05-13T05:59:52.551Z,1.60
2023-05-13T06:02:20.846Z,2.07
2023-05-13T06:04:49.281Z,1.43
2023-05-13T06:07:17.734Z,1.60
2023-05-13T06:09:46.065Z,2.03
2023-05-13T06:12:14.344Z,2.03
2023-05-13T06:14:44.049Z,1.47
2023-05-13T06:17:14.722Z,1.60
2023-05-13T06:19:43.568Z,1.57
2023-05-13T06:22:11.901Z,1.70
2023-05-13T06:24:42.647Z,1.77
2023-05-13T06:27:11.994Z,1.77
2023-05-13T06:29:40.266Z,1.80
2023-05-13T06:32:10.091Z,1.73
2023-05-13T06:34:40.055Z,1.70
2023-05-13T06:37:08.614Z,1.70
2023-05-13T06:39:36.904Z,1.70
2023-05-13T06:42:05.363Z,1.97
2023-05-13T06:44:33.693Z,1.87
2023-05-13T06:47:02.865Z,1.90
2023-05-13T06:49:32.677Z,1.90
2023-05-13T06:52:00.994Z,1.40
2023-05-13T06:54:29.288Z,1.90
2023-05-13T06:56:57.580Z,1.77
2023-05-13T06:59:25.836Z,2.07
2023-05-13T07:01:54.104Z,1.60
2023-05-13T07:04:22.455Z,1.67
2023-05-13T07:06:52.330Z,1.67
2023-05-13T07:09:20.748Z,1.77
2023-05-13T07:11:49.057Z,1.47
2023-05-13T07:14:17.324Z,1.40
2023-05-13T07:16:45.632Z,2.00
2023-05-13T07:19:13.968Z,1.53
2023-05-13T07:21:42.374Z,1.87
2023-05-13T07:24:12.014Z,1.63
2023-05-13T07:26:40.493Z,1.50
2023-05-13T07:29:08.756Z,2.37
2023-05-13T07:31:37.070Z,2.40
2023-05-13T07:34:06.147Z,1.90
2023-05-13T07:36:34.444Z,1.77
2023-05-13T07:39:03.279Z,1.83
2023-05-13T07:41:32.940Z,1.70
2023-05-13T07:44:01.231Z,1.57
2023-05-13T07:46:29.654Z,1.90
2023-05-13T07:48:57.965Z,1.60
2023-05-13T07:51:26.279Z,1.90
2023-05-13T07:53:54.568Z,2.00
2023-05-13T07:56:22.904Z,1.63
2023-05-13T07:58:52.591Z,1.63
2023-05-13T08:01:20.939Z,1.50
2023-05-13T08:03:49.317Z,1.60
2023-05-13T08:06:17.683Z,1.57
2023-05-13T08:08:45.994Z,1.57
2023-05-13T08:11:14.532Z,1.70
2023-05-13T08:13:42.837Z,1.50
2023-05-13T08:16:12.548Z,1.33
2023-05-13T08:18:40.872Z,1.73
2023-05-13T08:21:09.204Z,1.40
2023-05-13T08:23:45.449Z,1.43
2023-05-13T08:26:14.359Z,1.53
2023-05-13T08:28:42.830Z,1.40
2023-05-13T08:31:14.027Z,1.40
2023-05-13T08:33:42.870Z,1.53
2023-05-13T08:36:11.388Z,1.93
2023-05-13T08:38:39.852Z,1.47
2023-05-13T08:41:08.245Z,1.57
2023-05-13T08:43:36.691Z,1.27
2023-05-13T08:46:05.421Z,1.43
2023-05-13T08:48:35.081Z,1.47
2023-05-13T08:51:03.340Z,1.30
2023-05-13T08:53:31.995Z,1.80
2023-05-13T08:56:00.322Z,1.40
2023-05-13T08:58:28.639Z,1.70
2023-05-13T09:00:57.004Z,1.57
2023-05-13T09:03:25.363Z,1.50
2023-05-13T09:05:55.027Z,1.40
2023-05-13T09:08:23.409Z,1.50
2023-05-13T09:10:51.765Z,1.10
2023-05-13T09:13:20.075Z,1.37
2023-05-13T09:15:48.448Z,1.20
2023-05-13T09:18:18.687Z,1.30
2023-05-13T09:20:48.108Z,1.40
2023-05-13T09:23:17.804Z,0.97
2023-05-13T09:25:46.136Z,1.30
2023-05-13T09:28:15.890Z,0.97
2023-05-13T09:30:46.881Z,1.30
2023-05-13T09:33:15.590Z,1.07
2023-05-13T09:35:44.420Z,1.10
2023-05-13T09:38:16.076Z,0.90
2023-05-13T09:40:52.833Z,1.10
2023-05-13T09:43:21.626Z,1.03
2023-05-13T09:45:49.911Z,1.13
2023-05-13T09:48:19.264Z,1.60
2023-05-13T09:50:49.496Z,1.30
2023-05-13T09:53:18.043Z,1.70
2023-05-13T09:55:47.391Z,1.60
2023-05-13T09:58:17.112Z,1.13
2023-05-13T10:00:45.821Z,0.93
2023-05-13T10:03:15.033Z,1.40
2023-05-13T10:05:43.417Z,1.40
2023-05-13T10:08:12.004Z,1.30
2023-05-13T10:10:40.408Z,1.40
2023-05-13T10:13:10.889Z,1.20
2023-05-13T10:15:40.619Z,1.47
2023-05-13T10:18:08.980Z,1.03
2023-05-13T10:20:37.306Z,1.03
2023-05-13T10:23:05.562Z,16.93
2023-05-13T10:25:33.832Z,30.90
2023-05-13T10:28:02.146Z,28.13
2023-05-13T10:30:32.312Z,27.10
2023-05-13T10:33:02.771Z,16.43
2023-05-13T10:35:31.640Z,13.40
2023-05-13T10:38:03.422Z,11.40
2023-05-13T10:40:46.545Z,10.20
2023-05-13T10:43:17.145Z,6.80
2023-05-13T10:45:49.195Z,6.60
2023-05-13T10:48:19.115Z,7.03
2023-05-13T10:50:54.023Z,5.10
2023-05-13T10:53:24.517Z,5.07
2023-05-13T10:55:56.130Z,4.40
2023-05-13T10:58:24.686Z,3.63
2023-05-13T11:00:53.027Z,3.83
2023-05-13T11:03:31.733Z,3.07
2023-05-13T11:06:01.004Z,3.73
2023-05-13T11:08:38.737Z,3.77
2023-05-13T11:11:18.847Z,2.70
2023-05-13T11:13:47.368Z,2.57
2023-05-13T11:16:15.991Z,2.43
2023-05-13T11:18:45.815Z,2.03
2023-05-13T11:21:14.516Z,2.23
2023-05-13T11:23:52.806Z,2.30
2023-05-13T11:26:21.527Z,2.70
2023-05-13T11:28:56.220Z,1.60
2023-05-13T11:31:24.642Z,2.37
2023-05-13T11:34:10.235Z,1.93
2023-05-13T11:36:39.122Z,2.30
2023-05-13T11:39:08.150Z,2.43
2023-05-13T11:41:36.540Z,1.73
2023-05-13T11:44:04.866Z,2.13
2023-05-13T11:46:33.243Z,2.10
2023-05-13T11:49:01.500Z,2.23
2023-05-13T11:51:32.030Z,2.13
2023-05-13T11:54:03.943Z,2.10
2023-05-13T11:56:32.337Z,1.70
2023-05-13T11:59:15.955Z,2.57
2023-05-13T12:01:44.880Z,2.50
2023-05-13T12:04:13.620Z,2.17
2023-05-13T12:06:46.820Z,1.80
2023-05-13T12:09:15.183Z,2.37
2023-05-13T12:11:43.519Z,1.73
2023-05-13T12:14:11.827Z,1.80
2023-05-13T12:16:41.962Z,1.90
2023-05-13T12:19:10.403Z,1.67
2023-05-13T12:21:39.587Z,1.60
2023-05-13T12:24:19.662Z,2.03
2023-05-13T12:26:47.957Z,1.50
2023-05-13T12:29:16.205Z,1.57
2023-05-13T12:31:44.519Z,2.03
2023-05-13T12:34:12.875Z,1.97
2023-05-13T12:36:41.570Z,1.93
2023-05-13T12:39:10.288Z,1.23
2023-05-13T12:41:40.152Z,1.30
2023-05-13T12:44:09.758Z,2.37
2023-05-13T12:46:38.270Z,1.70
2023-05-13T12:49:07.025Z,1.70
2023-05-13T12:51:35.319Z,1.17
2023-05-13T12:54:03.607Z,1.30
2023-05-13T12:56:31.952Z,2.00
2023-05-13T12:59:01.729Z,1.30
2023-05-13T13:01:30.101Z,2.07
2023-05-13T13:03:58.575Z,1.10
2023-05-13T13:06:26.924Z,1.80
2023-05-13T13:08:55.322Z,1.57
2023-05-13T13:11:23.614Z,1.73
2023-05-13T13:13:51.891Z,2.00
2023-05-13T13:16:21.915Z,1.50
2023-05-13T13:18:51.822Z,1.20
2023-05-13T13:21:21.421Z,1.57
2023-05-13T13:23:49.717Z,1.80
2023-05-13T13:26:18.051Z,1.93
2023-05-13T13:28:46.322Z,1.57
2023-05-13T13:31:14.633Z,1.73
2023-05-13T13:33:44.295Z,1.53
2023-05-13T13:36:12.551Z,2.07
2023-05-13T13:38:40.850Z,1.50
2023-05-13T13:41:09.118Z,1.57
2023-05-13T13:43:37.478Z,1.37
2023-05-13T13:46:05.792Z,1.40
2023-05-13T13:48:34.159Z,1.77
2023-05-13T13:51:03.837Z,1.47
2023-05-13T13:53:32.122Z,1.43
2023-05-13T13:56:00.390Z,1.90
2023-05-13T13:58:28.661Z,1.50
2023-05-13T14:00:57.003Z,1.40
2023-05-13T14:03:25.437Z,1.70
2023-05-13T14:05:55.231Z,1.53
2023-05-13T14:08:24.955Z,2.03
2023-05-13T14:10:53.569Z,1.83
2023-05-13T14:13:22.142Z,1.40
2023-05-13T14:15:50.407Z,1.40
2023-05-13T14:18:18.723Z,1.50
2023-05-13T14:20:48.660Z,1.37
2023-05-13T14:23:16.992Z,1.53
2023-05-13T14:25:46.646Z,1.50
2023-05-13T14:28:15.436Z,1.47
2023-05-13T14:30:43.773Z,1.43
2023-05-13T14:33:12.150Z,1.40
2023-05-13T14:35:40.473Z,1.33
2023-05-13T14:38:09.017Z,1.47
2023-05-13T14:40:37.361Z,1.20
2023-05-13T14:43:07.083Z,1.60
2023-05-13T14:45:35.481Z,1.27
2023-05-13T14:48:03.926Z,1.23
2023-05-13T14:50:32.253Z,1.20
2023-05-13T14:53:00.547Z,1.37
2023-05-13T14:55:28.868Z,1.30
2023-05-13T14:57:57.129Z,1.50
2023-05-13T15:00:26.767Z,1.43
2023-05-13T15:02:55.227Z,1.57
2023-05-13T15:05:23.599Z,1.93
2023-05-13T15:07:51.865Z,1.70
2023-05-13T15:10:20.300Z,1.70
2023-05-13T15:12:48.688Z,1.57
2023-05-13T15:15:16.946Z,1.20
2023-05-13T15:17:46.619Z,1.80
2023-05-13T15:20:14.942Z,1.27
2023-05-13T15:22:43.260Z,1.43
2023-05-13T15:25:11.684Z,1.63
2023-05-13T15:27:39.961Z,1.23
2023-05-13T15:30:09.163Z,1.13
2023-05-13T15:32:37.547Z,1.70
2023-05-13T15:35:07.822Z,1.23
2023-05-13T15:37:36.092Z,1.67
2023-05-13T15:40:04.387Z,1.77
2023-05-13T15:42:32.660Z,1.60
2023-05-13T15:45:00.983Z,1.67
2023-05-13T15:47:29.374Z,1.63
2023-05-13T15:49:58.377Z,1.93
2023-05-13T15:52:28.004Z,1.67
2023-05-13T15:54:56.405Z,1.60
2023-05-13T15:57:24.672Z,1.33
2023-05-13T15:59:52.953Z,1.30
2023-05-13T16:02:21.251Z,1.37
2023-05-13T16:04:49.522Z,1.33
2023-05-13T16:07:17.821Z,2.10
2023-05-13T16:09:47.508Z,1.63
2023-05-13T16:12:15.815Z,1.77
2023-05-13T16:14:44.112Z,1.93
2023-05-13T16:17:12.887Z,1.33
2023-05-13T16:19:41.200Z,1.70
2023-05-13T16:22:29.064Z,1.17
2023-05-13T16:24:59.850Z,1.37
2023-05-13T16:27:28.224Z,1.77
2023-05-13T16:29:56.826Z,1.57
2023-05-13T16:32:25.149Z,1.63
2023-05-13T16:34:54.821Z,1.57
2023-05-13T16:37:23.126Z,1.50
2023-05-13T16:39:51.406Z,1.40
2023-05-13T16:42:21.039Z,1.90
2023-05-13T16:44:49.309Z,2.23
2023-05-13T16:47:17.739Z,1.70
2023-05-13T16:49:48.422Z,1.57
2023-05-13T16:52:16.735Z,1.43
2023-05-13T16:54:45.127Z,1.90
2023-05-13T16:57:13.414Z,1.57
2023-05-13T16:59:43.125Z,1.70
2023-05-13T17:02:11.465Z,1.57
2023-05-13T17:04:39.762Z,1.30
2023-05-13T17:07:08.131Z,1.80
2023-05-13T17:09:36.441Z,1.63
2023-05-13T17:12:04.800Z,1.60
2023-05-13T17:14:33.098Z,1.63
2023-05-13T17:17:03.595Z,1.73
2023-05-13T17:19:31.960Z,1.40
2023-05-13T17:22:00.285Z,1.57
2023-05-13T17:24:29.360Z,2.10
2023-05-13T17:26:57.674Z,1.60
2023-05-13T17:29:26.031Z,2.00
2023-05-13T17:31:54.431Z,1.53
2023-05-13T17:34:24.214Z,1.30
2023-05-13T17:36:52.513Z,2.00
2023-05-13T17:39:20.780Z,1.57
2023-05-13T17:41:49.035Z,1.63
2023-05-13T17:44:17.318Z,2.17
2023-05-13T17:46:45.607Z,1.90
2023-05-13T17:49:13.963Z,1.50
2023-05-13T17:51:43.724Z,1.73
2023-05-13T17:54:12.046Z,1.47
2023-05-13T17:56:40.327Z,1.60
2023-05-13T17:59:08.657Z,2.00
2023-05-13T18:01:36.944Z,1.63
2023-05-13T18:04:05.246Z,1.53
2023-05-13T18:06:33.569Z,1.50
2023-05-13T18:09:03.187Z,1.83
2023-05-13T18:11:31.427Z,1.83
2023-05-13T18:13:59.708Z,2.00
2023-05-13T18:16:28.061Z,1.30
2023-05-13T18:18:56.441Z,1.50
2023-05-13T18:21:24.788Z,1.67
2023-05-13T18:23:53.108Z,1.80
2023-05-13T18:26:23.072Z,1.50
2023-05-13T18:28:51.394Z,1.93
2023-05-13T18:31:19.725Z,1.47
2023-05-13T18:33:48.001Z,2.07
2023-05-13T18:36:16.310Z,1.73
2023-05-13T18:38:45.930Z,1.70
2023-05-13T18:41:14.191Z,1.97
2023-05-13T18:43:43.864Z,2.00
2023-05-13T18:46:12.205Z,1.60
2023-05-13T18:48:40.568Z,1.60
2023-05-13T18:51:08.888Z,2.00
2023-05-13T18:53:37.189Z,1.73
2023-05-13T18:56:05.503Z,2.03
2023-05-13T18:58:33.792Z,1.43
2023-05-13T19:01:03.597Z,1.63
2023-05-13T19:03:32.028Z,1.50
2023-05-13T19:06:00.547Z,1.47
2023-05-13T19:08:28.821Z,1.97
2023-05-13T19:10:57.563Z,1.80
2023-05-13T19:13:33.158Z,1.57
2023-05-13T19:16:05.960Z,1.70
2023-05-13T19:18:34.345Z,1.67
2023-05-13T19:21:02.642Z,2.17
2023-05-13T19:23:32.194Z,1.90
2023-05-13T19:26:00.563Z,1.67
2023-05-13T19:28:29.333Z,2.00
2023-05-13T19:30:57.627Z,2.40
2023-05-13T19:33:27.265Z,1.83
2023-05-13T19:35:55.559Z,2.07
2023-05-13T19:38:23.888Z,2.23
2023-05-13T19:40:54.044Z,1.67
2023-05-13T19:43:22.337Z,2.00
2023-05-13T19:45:50.710Z,2.00
2023-05-13T19:48:18.977Z,1.90
2023-05-13T19:50:48.634Z,2.00
2023-05-13T19:53:16.980Z,1.47
2023-05-13T19:55:45.440Z,1.73
2023-05-13T19:58:13.715Z,1.83
2023-05-13T20:00:43.952Z,2.17
2023-05-13T20:03:12.390Z,1.80
2023-05-13T20:05:41.619Z,1.73
2023-05-13T20:08:11.329Z,2.10
2023-05-13T20:10:40.442Z,1.70
2023-05-13T20:13:08.791Z,1.90
2023-05-13T20:15:37.350Z,2.10
2023-05-13T20:18:06.084Z,1.73
2023-05-13T20:20:34.389Z,1.73
2023-05-13T20:23:02.755Z,2.00
2023-05-13T20:25:32.401Z,1.73
2023-05-13T20:28:00.700Z,1.60
2023-05-13T20:30:29.012Z,2.10
2023-05-13T20:32:57.340Z,1.73
2023-05-13T20:35:27.473Z,1.70
2023-05-13T20:37:57.272Z,2.10
2023-05-13T20:40:25.614Z,1.73
2023-05-13T20:42:55.786Z,2.13
2023-05-13T20:45:24.104Z,2.33
2023-05-13T20:47:52.372Z,1.60
2023-05-13T20:50:21.002Z,1.80
2023-05-13T20:52:49.474Z,2.33
2023-05-13T20:55:17.996Z,1.87
2023-05-13T20:57:46.247Z,2.10
2023-05-13T21:00:16.605Z,1.97
2023-05-13T21:02:45.127Z,1.97
2023-05-13T21:05:13.528Z,2.63
2023-05-13T21:07:41.868Z,1.93
2023-05-13T21:10:10.742Z,1.80
2023-05-13T21:12:39.335Z,2.13
2023-05-13T21:15:08.079Z,2.40
2023-05-13T21:17:37.852Z,1.93
2023-05-13T21:20:06.607Z,1.90
2023-05-13T21:22:34.876Z,2.30
2023-05-13T21:25:03.210Z,2.10
2023-05-13T21:27:31.505Z,2.17
2023-05-13T21:29:59.785Z,2.20
2023-05-13T21:32:28.143Z,2.50
2023-05-13T21:34:57.900Z,2.03
2023-05-13T21:37:26.809Z,2.10
2023-05-13T21:39:55.125Z,2.00
2023-05-13T21:42:23.435Z,2.20
2023-05-13T21:44:51.783Z,2.40
2023-05-13T21:47:20.283Z,2.27
2023-05-13T21:49:48.573Z,2.00
2023-05-13T21:52:18.478Z,2.30
2023-05-13T21:54:46.803Z,2.07
2023-05-13T21:57:15.078Z,1.80
2023-05-13T21:59:43.459Z,2.20
2023-05-13T22:02:11.792Z,2.27
2023-05-13T22:04:40.089Z,2.17
2023-05-13T22:07:08.371Z,2.27
2023-05-13T22:09:38.026Z,2.10
2023-05-13T22:12:06.584Z,2.43
2023-05-13T22:14:34.841Z,2.37
2023-05-13T22:17:09.557Z,2.13
2023-05-13T22:19:38.435Z,2.67
2023-05-13T22:22:07.035Z,2.07
2023-05-13T22:24:35.314Z,1.70
2023-05-13T22:27:05.026Z,1.93
2023-05-13T22:29:33.328Z,2.10
2023-05-13T22:32:01.656Z,2.43
2023-05-13T22:34:30.079Z,2.60
2023-05-13T22:36:58.461Z,2.13
2023-05-13T22:39:27.513Z,2.27
2023-05-13T22:41:55.768Z,2.30
2023-05-13T22:44:25.515Z,2.60
2023-05-13T22:46:54.212Z,2.60
2023-05-13T22:49:22.654Z,2.67
2023-05-13T22:51:51.009Z,2.93
2023-05-13T22:54:19.296Z,2.27
2023-05-13T22:56:47.596Z,3.17
2023-05-13T22:59:15.882Z,2.50
2023-05-13T23:01:45.707Z,3.00
2023-05-13T23:04:14.082Z,2.20
2023-05-13T23:06:42.379Z,2.97
2023-05-13T23:09:11.007Z,2.40
2023-05-13T23:11:39.305Z,3.10
2023-05-13T23:14:07.642Z,2.67
2023-05-13T23:16:37.145Z,2.73
2023-05-13T23:19:06.894Z,2.47
2023-05-13T23:21:35.320Z,2.90
2023-05-13T23:24:03.564Z,2.60
2023-05-13T23:26:31.834Z,2.77
2023-05-13T23:29:00.341Z,2.73
2023-05-13T23:31:28.636Z,2.90
2023-05-13T23:33:56.938Z,2.57
2023-05-13T23:36:29.073Z,2.43
2023-05-13T23:38:57.366Z,2.77
2023-05-13T23:41:25.684Z,2.20
2023-05-13T23:43:53.989Z,2.50
2023-05-13T23:46:22.415Z,2.70
2023-05-13T23:48:50.744Z,1.80
2023-05-13T23:51:19.052Z,2.50
2023-05-13T23:53:48.688Z,2.43
2023-05-13T23:56:17.204Z,2.20
2023-05-13T23:58:45.533Z,2.60
